Time;durP1;ratioP1;P1;durP2;ratioP2;P2;SDS_P1;SDS_P2;PMS_P1;PMS_P2;Temp;Humidity;BMP_temperature;BMP_pressure;BME280_temperature;BME280_humidity;BME280_pressure;Samples;Min_cycle;Max_cycle;Signal;HPM_P1;HPM_P2
2022/05/12 00:03:27;;;;;;;1.92;0.50;;;;;;;21.82;36.71;101369.38;16138962;19;129887;-39
2022/05/12 00:08:49;;;;;;;1.63;0.57;;;;;;;21.82;36.33;101372.16;16140056;19;129975;-41
2022/05/12 00:14:12;;;;;;;2.30;0.60;;;;;;;21.81;36.44;101380.78;16135136;19;129960;-41
2022/05/12 00:19:33;;;;;;;1.55;0.50;;;;;;;21.80;36.56;101387.44;16134754;19;130820;-42
2022/05/12 00:24:55;;;;;;;2.95;0.50;;;;;;;21.80;36.49;101396.63;16136521;19;130558;-40
2022/05/12 00:30:17;;;;;;;1.48;0.47;;;;;;;21.79;36.56;101406.09;16137624;19;129786;-41
2022/05/12 00:35:41;;;;;;;0.75;0.30;;;;;;;21.77;36.57;101416.66;16136133;19;130319;-40
2022/05/12 00:41:03;;;;;;;1.55;0.50;;;;;;;21.77;36.70;101421.38;16136046;19;130213;-41
2022/05/12 00:46:28;;;;;;;2.60;0.35;;;;;;;21.76;36.71;101422.47;16136973;19;130028;-40
2022/05/12 00:52:13;;;;;;;0.85;0.30;;;;;;;21.76;36.60;101425.25;16133869;19;130673;-41
2022/05/12 00:57:42;;;;;;;1.17;0.50;;;;;;;21.73;36.61;101432.19;16134362;19;130928;-39
2022/05/12 01:03:09;;;;;;;2.90;0.30;;;;;;;21.73;36.43;101440.53;16134103;19;131023;-40
2022/05/12 01:08:31;;;;;;;1.55;0.25;;;;;;;21.71;36.33;101439.94;16132411;19;129823;-42
2022/05/12 01:13:59;;;;;;;1.85;0.38;;;;;;;21.71;36.58;101434.38;16134080;19;129419;-41
2022/05/12 01:19:25;;;;;;;1.88;0.30;;;;;;;21.70;36.88;101443.00;16129938;19;130609;-40
2022/05/12 01:24:46;;;;;;;0.60;0.40;;;;;;;21.69;36.63;101458.84;16132326;19;130724;-43
2022/05/12 01:30:11;;;;;;;1.52;0.30;;;;;;;21.67;36.43;101458.25;16132698;19;130537;-40
2022/05/12 01:35:33;;;;;;;1.40;0.37;;;;;;;21.65;36.55;101452.94;16134632;19;130003;-40
2022/05/12 01:40:55;;;;;;;2.30;0.32;;;;;;;21.65;36.73;101463.25;16126469;19;129735;-41
2022/05/12 01:46:16;;;;;;;1.48;0.38;;;;;;;21.64;36.89;101467.13;16133595;19;129899;-39
2022/05/12 01:51:39;;;;;;;1.70;0.30;;;;;;;21.63;36.94;101469.06;16135590;19;129841;-40
2022/05/12 01:57:01;;;;;;;0.50;0.22;;;;;;;21.62;36.55;101481.28;16136858;19;129430;-40
2022/05/12 02:02:23;;;;;;;0.50;0.28;;;;;;;21.62;36.74;101488.81;16131562;19;130271;-43
2022/05/12 02:07:47;;;;;;;1.02;0.20;;;;;;;21.61;36.92;101489.91;16131873;19;131067;-42
2022/05/12 02:13:11;;;;;;;1.67;0.50;;;;;;;21.60;36.88;101493.78;16125656;19;130515;-40
2022/05/12 02:18:34;;;;;;;0.93;0.38;;;;;;;21.59;36.68;101511.59;16125734;19;129723;-40
2022/05/12 02:23:56;;;;;;;1.27;0.60;;;;;;;21.57;36.80;101508.22;16129306;19;129920;-39
2022/05/12 02:29:17;;;;;;;0.98;0.30;;;;;;;21.56;36.77;101514.88;16130348;19;130629;-40
2022/05/12 02:34:39;;;;;;;1.88;0.32;;;;;;;21.55;37.12;101521.53;16127059;19;130467;-40
2022/05/12 02:40:02;;;;;;;2.05;0.82;;;;;;;21.55;37.14;101515.97;16135592;19;129837;-42
2022/05/12 02:45:26;;;;;;;0.52;0.28;;;;;;;21.53;36.79;101519.00;16145195;19;129522;-42
2022/05/12 02:50:48;;;;;;;0.70;0.28;;;;;;;21.52;37.08;101520.09;16140759;19;130578;-39
2022/05/12 02:56:10;;;;;;;1.17;0.30;;;;;;;21.53;36.94;101544.06;16144632;19;129866;-40
2022/05/12 03:01:32;;;;;;;1.75;0.40;;;;;;;21.50;36.92;101534.28;16138681;19;130058;-41
2022/05/12 03:06:53;;;;;;;0.75;0.30;;;;;;;21.50;37.03;101534.28;16142709;19;129770;-39
2022/05/12 03:12:15;;;;;;;1.77;0.30;;;;;;;21.49;36.98;101537.31;16142052;19;129543;-39
2022/05/12 03:17:37;;;;;;;0.80;0.35;;;;;;;21.48;37.04;101555.06;16136406;19;129668;-41
2022/05/12 03:23:00;;;;;;;0.65;0.30;;;;;;;21.47;37.22;101557.03;16141294;19;130153;-40
2022/05/12 03:28:22;;;;;;;1.23;0.45;;;;;;;21.47;36.96;101556.19;16139473;19;131071;-40
2022/05/12 03:33:46;;;;;;;1.52;0.32;;;;;;;21.46;37.02;101554.50;16140402;19;129546;-39
2022/05/12 03:39:08;;;;;;;1.75;0.43;;;;;;;21.44;37.10;101567.81;16136063;19;130868;-41
2022/05/12 03:44:49;;;;;;;0.68;0.40;;;;;;;21.43;37.29;101572.53;16142551;19;129873;-39
2022/05/12 03:50:14;;;;;;;0.80;0.22;;;;;;;21.42;36.83;101576.41;16136526;19;129443;-39
2022/05/12 03:55:40;;;;;;;1.35;0.40;;;;;;;21.42;36.80;101587.53;16135802;19;130106;-39
2022/05/12 04:01:03;;;;;;;1.73;0.47;;;;;;;21.41;37.20;101585.88;16132671;19;129864;-39
2022/05/12 04:06:25;;;;;;;1.45;0.60;;;;;;;21.40;36.87;101606.44;16135367;19;129738;-40
2022/05/12 04:11:47;;;;;;;0.50;0.30;;;;;;;21.39;37.08;101613.09;16137051;19;129758;-43
2022/05/12 04:17:15;;;;;;;1.95;0.70;;;;;;;21.40;36.80;101617.59;16133621;19;130420;-39
2022/05/12 04:22:40;;;;;;;0.80;0.55;;;;;;;21.39;37.34;101626.16;16140333;19;129630;-40
2022/05/12 04:28:04;;;;;;;1.55;0.80;;;;;;;21.39;37.16;101624.25;16137027;19;129535;-39
2022/05/12 04:39:06;;;;;;;0.68;0.55;;;;;;;21.36;37.43;101645.03;16133984;19;130564;-40
2022/05/12 04:44:28;;;;;;;1.00;0.60;;;;;;;21.35;36.91;101659.22;16135930;19;130683;-40
2022/05/12 04:49:50;;;;;;;0.80;0.60;;;;;;;21.35;37.21;101659.22;16131752;19;129870;-40
2022/05/12 04:55:12;;;;;;;1.45;0.65;;;;;;;21.35;37.30;101659.22;16139450;19;130379;-40
2022/05/12 05:00:40;;;;;;;1.80;0.63;;;;;;;21.34;37.01;101665.88;16129977;19;129774;-41
2022/05/12 05:06:02;;;;;;;2.50;1.00;;;;;;;21.32;37.38;101654.13;16132847;19;130970;-40
2022/05/12 05:11:25;;;;;;;0.70;0.40;;;;;;;21.33;37.42;101664.19;16132924;19;130536;-41
2022/05/12 05:16:47;;;;;;;3.22;0.88;;;;;;;21.32;37.61;101677.28;16128785;19;130505;-43
2022/05/12 05:22:09;;;;;;;4.97;2.60;;;;;;;21.30;37.21;101690.56;16131109;19;129803;-41
2022/05/12 05:27:31;;;;;;;10.95;7.20;;;;;;;21.24;37.35;101693.50;16135787;19;129554;-40
2022/05/12 05:32:54;;;;;;;17.88;11.75;;;;;;;21.20;37.15;101701.50;16134015;19;130417;-42
2022/05/12 05:38:16;;;;;;;18.40;12.60;;;;;;;21.18;37.02;101710.06;16131007;19;130298;-40
2022/05/12 05:43:38;;;;;;;18.80;12.20;;;;;;;21.14;36.94;101719.16;16132960;19;129847;-42
2022/05/12 05:49:00;;;;;;;16.30;10.30;;;;;;;21.11;37.23;101728.84;16131951;19;129939;-40
2022/05/12 05:54:21;;;;;;;17.38;9.57;;;;;;;21.12;37.01;101750.00;16129360;19;129134;-43
2022/05/12 05:59:43;;;;;;;15.82;8.82;;;;;;;21.16;36.90;101756.78;16119440;19;130701;-40
2022/05/12 06:05:06;;;;;;;14.93;8.85;;;;;;;21.20;37.25;101768.28;16126082;19;129831;-42
2022/05/12 06:10:29;;;;;;;13.75;7.72;;;;;;;21.24;36.86;101760.28;16120489;19;129785;-40
2022/05/12 06:15:51;;;;;;;13.15;7.95;;;;;;;21.25;36.85;101761.97;16136013;19;129178;-40
2022/05/12 06:21:13;;;;;;;10.85;7.85;;;;;;;21.27;37.25;101774.56;16130546;19;131379;-41
2022/05/12 06:26:34;;;;;;;11.05;7.32;;;;;;;21.31;36.85;101786.91;16128150;19;130832;-41
2022/05/12 06:31:56;;;;;;;14.45;7.15;;;;;;;21.34;37.04;101791.13;16136844;19;129367;-43
2022/05/12 06:37:19;;;;;;;12.32;6.70;;;;;;;21.34;37.00;101799.47;16131695;19;129555;-42
2022/05/12 06:42:41;;;;;;;9.57;6.50;;;;;;;21.39;37.13;101807.94;16125623;19;130384;-43
2022/05/12 06:48:03;;;;;;;9.40;5.40;;;;;;;21.41;37.01;101811.34;16123215;19;129306;-44
2022/05/12 06:53:25;;;;;;;7.78;5.97;;;;;;;21.46;37.34;101805.88;16128633;19;130209;-40
2022/05/12 06:58:46;;;;;;;9.20;5.30;;;;;;;21.52;36.90;101815.22;16126971;19;129496;-40
2022/05/12 07:04:08;;;;;;;10.60;5.32;;;;;;;21.58;36.99;101821.75;16128363;19;129519;-41
2022/05/12 07:09:31;;;;;;;6.95;4.57;;;;;;;21.64;37.01;101827.19;16124362;19;129213;-41
2022/05/12 07:14:55;;;;;;;10.27;4.80;;;;;;;21.70;37.41;101833.69;16124537;19;129547;-40
2022/05/12 07:31:38;;;;;;;8.73;4.05;;;;;;;21.86;37.18;101834.88;16147955;19;129732;-43
2022/05/12 07:37:00;;;;;;;11.35;4.10;;;;;;;21.95;37.15;101846.47;16146075;19;131621;-42
2022/05/12 07:42:22;;;;;;;8.10;4.13;;;;;;;22.02;36.86;101852.78;16137543;19;130414;-42
2022/05/12 07:47:44;;;;;;;7.32;3.65;;;;;;;22.08;36.97;101850.94;16133127;19;130184;-43
2022/05/12 07:53:07;;;;;;;6.70;3.67;;;;;;;22.13;36.92;101849.09;16138577;19;129743;-45
2022/05/12 07:58:30;;;;;;;8.23;3.30;;;;;;;22.21;36.59;101861.81;16135510;19;130714;-42
2022/05/12 08:03:52;;;;;;;9.85;3.22;;;;;;;22.23;36.75;101858.78;16125513;19;129567;-40
2022/05/12 08:09:15;;;;;;;6.53;2.90;;;;;;;22.25;36.70;101862.16;16126162;19;131394;-40
2022/05/12 08:14:37;;;;;;;6.57;3.17;;;;;;;22.27;36.52;101871.13;16125624;19;129473;-41
2022/05/12 08:19:58;;;;;;;6.93;2.70;;;;;;;22.28;36.49;101873.66;16138907;19;129391;-41
2022/05/12 08:25:20;;;;;;;3.97;2.35;;;;;;;22.28;36.76;101867.22;16139118;19;130109;-42
2022/05/12 08:30:44;;;;;;;5.95;2.47;;;;;;;22.30;36.49;101865.03;16142878;19;129566;-42
2022/05/12 08:36:07;;;;;;;4.22;2.22;;;;;;;22.31;36.42;101866.75;16143626;19;129667;-40
2022/05/12 08:41:39;;;;;;;8.68;2.60;;;;;;;22.35;36.30;101867.06;16137942;19;132543;-40
2022/05/12 08:47:03;;;;;;;5.60;2.28;;;;;;;22.35;36.52;101862.38;16145771;19;130363;-41
2022/05/12 08:53:01;;;;;;;4.03;1.85;;;;;;;22.39;36.55;101869.16;16141232;19;128918;-40
2022/05/12 08:58:33;;;;;;;5.13;2.13;;;;;;;22.40;36.40;101873.59;16143417;19;129079;-40
2022/05/12 09:04:32;;;;;;;4.07;1.90;;;;;;;22.42;36.23;101874.19;16142520;19;129263;-40
2022/05/12 09:10:01;;;;;;;2.47;1.40;;;;;;;22.39;36.19;101871.94;16141091;19;129613;-42
2022/05/12 09:15:31;;;;;;;3.80;1.90;;;;;;;22.37;36.27;101874.13;16141838;19;129467;-40
2022/05/12 09:20:53;;;;;;;4.30;1.60;;;;;;;22.37;36.35;101879.69;16139441;19;129330;-40
2022/05/12 09:26:38;;;;;;;4.07;1.73;;;;;;;22.38;36.53;101877.75;16141159;19;128706;-41
2022/05/12 09:32:02;;;;;;;5.28;1.50;;;;;;;22.34;36.29;101877.41;16140417;19;129500;-41
2022/05/12 09:37:28;;;;;;;4.03;1.57;;;;;;;22.32;36.40;101868.44;16141258;19;131918;-40
2022/05/12 09:43:00;;;;;;;2.70;1.40;;;;;;;22.32;36.31;101873.19;16134856;19;129688;-42
2022/05/12 09:48:27;;;;;;;2.63;1.30;;;;;;;22.32;35.95;101870.38;16138297;19;128988;-40
2022/05/12 09:54:12;;;;;;;3.28;1.30;;;;;;;22.30;36.36;101853.88;16140083;19;129467;-45
2022/05/12 09:59:34;;;;;;;3.40;1.10;;;;;;;22.28;36.23;101864.44;16137703;19;129255;-40
2022/05/12 10:10:57;;;;;;;1.83;1.00;;;;;;;22.31;36.44;101863.94;16139338;19;130722;-39
2022/05/12 10:16:26;;;;;;;1.63;0.90;;;;;;;22.29;35.98;101866.13;16135996;19;129037;-40
2022/05/12 10:22:13;;;;;;;3.20;1.35;;;;;;;22.29;35.84;101874.50;16134323;19;129099;-40
2022/05/12 10:27:54;;;;;;;2.27;1.00;;;;;;;22.28;36.10;101870.88;16137892;19;129690;-41
2022/05/12 10:33:22;;;;;;;2.78;0.95;;;;;;;22.25;36.29;101868.56;16138498;19;129032;-40
2022/05/12 10:38:57;;;;;;;3.03;0.93;;;;;;;22.25;36.11;101856.59;16136566;19;129257;-40
2022/05/12 10:44:45;;;;;;;1.93;0.80;;;;;;;22.24;36.27;101866.06;16135933;19;130602;-40
2022/05/12 10:50:45;;;;;;;1.95;0.80;;;;;;;22.23;36.24;101853.22;16132578;19;129637;-40
2022/05/12 10:56:24;;;;;;;1.25;0.80;;;;;;;22.23;35.99;101847.63;16131624;19;131520;-45
2022/05/12 11:01:53;;;;;;;3.78;1.67;;;;;;;22.23;36.14;101847.63;16137823;19;129925;-43
2022/05/12 11:07:24;;;;;;;3.58;1.67;;;;;;;22.21;36.22;101852.59;16149050;19;129427;-40
2022/05/12 11:12:51;;;;;;;7.30;1.90;;;;;;;22.20;35.61;101853.66;16149463;19;129435;-42
2022/05/12 11:18:21;;;;;;;6.68;1.70;;;;;;;22.18;35.55;101841.91;16148422;19;130418;-40
2022/05/12 11:23:56;;;;;;;3.45;1.60;;;;;;;22.17;35.93;101843.88;16146240;19;129483;-42
2022/05/12 11:29:44;;;;;;;5.03;1.48;;;;;;;22.16;35.67;101838.53;16151107;19;129010;-40
2022/05/12 11:35:11;;;;;;;6.05;1.40;;;;;;;22.16;35.60;101835.75;16148725;19;128819;-43
2022/05/12 11:40:58;;;;;;;8.02;1.92;;;;;;;22.17;35.54;101840.22;16147430;19;129778;-41
2022/05/12 11:46:50;;;;;;;5.00;1.75;;;;;;;22.16;35.27;101835.75;16150382;19;130078;-41
2022/05/12 11:52:54;;;;;;;2.28;1.20;;;;;;;22.16;35.63;101830.16;16148612;19;128989;-44
2022/05/12 11:58:38;;;;;;;2.83;1.33;;;;;;;22.18;35.31;101825.19;16143805;19;129016;-41
2022/05/12 12:04:02;;;;;;;3.40;1.30;;;;;;;22.19;35.13;101829.69;16148709;19;130764;-39
2022/05/12 12:09:49;;;;;;;3.05;1.20;;;;;;;22.20;35.12;101836.94;16145557;19;129451;-39
2022/05/12 12:15:28;;;;;;;3.75;1.17;;;;;;;22.21;35.13;101835.88;16145229;19;129613;-40
2022/05/12 12:20:54;;;;;;;2.03;1.50;;;;;;;22.20;35.53;101831.38;16144160;19;129714;-41
2022/05/12 12:26:36;;;;;;;5.82;1.20;;;;;;;22.22;35.39;101818.06;16145243;19;129648;-40
2022/05/12 12:32:24;;;;;;;2.20;1.05;;;;;;;22.23;35.10;101808.63;16145673;19;129470;-40
2022/05/12 12:37:48;;;;;;;2.58;1.00;;;;;;;22.26;35.11;101816.47;16142893;19;129412;-44
2022/05/12 12:43:30;;;;;;;3.70;1.17;;;;;;;22.29;35.26;101818.75;16137174;19;129376;-40
2022/05/12 12:49:09;;;;;;;2.83;1.27;;;;;;;22.30;35.04;101814.88;16144400;19;129365;-40
2022/05/12 13:00:33;;;;;;;4.15;1.33;;;;;;;22.30;34.69;101798.13;16141136;19;129387;-41
2022/05/12 13:06:16;;;;;;;2.90;0.82;;;;;;;22.30;34.86;101784.19;16144396;19;129940;-41
2022/05/12 13:11:39;;;;;;;2.80;0.93;;;;;;;22.31;34.92;101788.69;16143875;19;129183;-43
2022/05/12 13:17:04;;;;;;;3.88;0.93;;;;;;;22.31;34.70;101783.09;16139843;19;129298;-40
2022/05/12 13:22:36;;;;;;;1.40;0.80;;;;;;;22.34;34.78;101781.78;16137271;19;130589;-40
2022/05/12 13:27:58;;;;;;;2.95;1.05;;;;;;;22.33;34.37;101780.91;16141948;19;128785;-41
2022/05/12 13:33:20;;;;;;;3.60;1.10;;;;;;;22.34;34.28;101770.63;16142323;19;129361;-40
2022/05/12 13:38:45;;;;;;;2.35;1.00;;;;;;;22.35;34.41;101773.16;16142134;19;131424;-39
2022/05/12 13:44:19;;;;;;;3.20;1.10;;;;;;;22.36;34.36;101772.06;16135301;19;129120;-41
2022/05/12 13:49:41;;;;;;;2.00;0.93;;;;;;;22.35;34.69;101767.59;16140601;19;128919;-41
2022/05/12 13:55:07;;;;;;;3.03;1.25;;;;;;;22.35;34.63;101762.00;16138312;19;130779;-43
2022/05/12 14:00:33;;;;;;;2.50;1.05;;;;;;;22.35;34.62;101762.00;16137118;19;128960;-39
2022/05/12 14:06:08;;;;;;;2.00;0.80;;;;;;;22.34;34.36;101763.09;16133193;19;129214;-40
2022/05/12 14:11:30;;;;;;;6.20;0.85;;;;;;;22.32;34.30;101756.94;16139547;19;130400;-43
2022/05/12 14:22:32;;;;;;;2.55;0.90;;;;;;;22.29;34.37;101746.28;16136011;19;129211;-40
2022/05/12 14:27:54;;;;;;;2.10;0.93;;;;;;;22.29;33.97;101746.28;16137836;19;129319;-41
2022/05/12 14:33:18;;;;;;;2.08;0.80;;;;;;;22.30;34.33;101747.97;16142781;19;129082;-39
2022/05/12 14:38:40;;;;;;;2.92;0.90;;;;;;;22.30;34.33;101752.72;16154050;19;129286;-40
2022/05/12 14:44:02;;;;;;;0.85;0.60;;;;;;;22.29;34.26;101735.13;16148727;19;129001;-41
2022/05/12 14:49:40;;;;;;;1.65;0.70;;;;;;;22.30;34.24;101736.00;16152561;19;129120;-41
2022/05/12 14:55:02;;;;;;;1.23;0.60;;;;;;;22.27;34.34;101726.19;16152053;19;128918;-40
2022/05/12 15:00:24;;;;;;;1.63;0.68;;;;;;;22.27;34.18;101720.63;16150781;19;129028;-39
2022/05/12 15:05:46;;;;;;;1.55;0.52;;;;;;;22.26;33.98;101719.75;16148971;19;129523;-42
2022/05/12 15:11:07;;;;;;;2.20;0.80;;;;;;;22.25;34.46;101720.84;16147951;19;129057;-40
2022/05/12 15:16:30;;;;;;;3.30;0.70;;;;;;;22.23;34.08;101709.09;16148205;19;129291;-39
2022/05/12 15:21:53;;;;;;;2.35;0.80;;;;;;;22.22;33.80;101717.72;16145981;19;129244;-43
2022/05/12 15:27:15;;;;;;;2.47;0.75;;;;;;;22.21;34.04;101718.81;16150039;19;130646;-41
2022/05/12 15:32:37;;;;;;;3.80;0.60;;;;;;;22.19;33.67;101702.34;16149212;19;129088;-40
2022/05/12 15:37:59;;;;;;;3.47;0.75;;;;;;;22.19;33.57;101715.41;16150838;19;128886;-40
2022/05/12 15:43:21;;;;;;;2.53;0.70;;;;;;;22.18;33.92;101708.13;16140488;19;130874;-40
2022/05/12 15:48:42;;;;;;;1.27;0.57;;;;;;;22.18;33.91;101705.34;16146582;19;130097;-42
2022/05/12 15:54:04;;;;;;;5.40;1.90;;;;;;;22.15;34.06;101706.72;16146182;19;130017;-43
2022/05/12 15:59:26;;;;;;;14.55;8.77;;;;;;;22.17;33.95;101703.66;16143826;19;129820;-41
2022/05/12 16:04:51;;;;;;;12.30;7.72;;;;;;;22.17;34.41;101698.09;16138582;19;129960;-43
2022/05/12 16:10:13;;;;;;;15.48;9.75;;;;;;;22.16;34.40;101690.81;16148074;19;129232;-43
2022/05/12 16:15:36;;;;;;;17.13;9.02;;;;;;;22.17;34.80;101681.38;16144803;19;129508;-43
2022/05/12 16:20:58;;;;;;;13.40;9.13;;;;;;;22.19;34.60;101680.03;16143269;19;130637;-41
2022/05/12 16:26:19;;;;;;;16.10;8.93;;;;;;;22.21;34.96;101679.81;16145556;19;129769;-41
2022/05/12 16:31:41;;;;;;;15.88;7.88;;;;;;;22.21;34.70;101677.03;16140836;19;129042;-42
2022/05/12 16:37:07;;;;;;;10.53;8.00;;;;;;;22.22;34.98;101673.13;16141228;19;130297;-41
2022/05/12 16:42:29;;;;;;;10.63;7.25;;;;;;;22.21;34.99;101677.88;16136529;19;128999;-40
2022/05/12 16:47:51;;;;;;;10.05;6.40;;;;;;;22.22;34.93;101673.13;16141498;19;129517;-40
2022/05/12 16:53:13;;;;;;;11.07;5.93;;;;;;;22.22;34.75;101675.94;16137029;19;129401;-45
2022/05/12 16:58:35;;;;;;;11.80;5.60;;;;;;;22.24;34.49;101673.72;16130517;19;129574;-43
2022/05/12 17:03:57;;;;;;;9.10;5.30;;;;;;;22.21;34.79;101669.53;16131740;19;129551;-40
2022/05/12 17:09:19;;;;;;;9.93;4.57;;;;;;;22.23;34.36;101669.25;16139431;19;129870;-42
2022/05/12 17:14:44;;;;;;;11.95;3.72;;;;;;;22.25;34.48;101672.63;16131706;19;129824;-40
2022/05/12 17:20:07;;;;;;;11.48;3.83;;;;;;;22.26;34.70;101682.69;16136394;19;130212;-41
2022/05/12 17:25:30;;;;;;;11.43;3.35;;;;;;;22.28;34.12;101677.69;16138387;19;130460;-42
2022/05/12 17:30:51;;;;;;;10.55;3.80;;;;;;;22.28;34.24;101681.34;16137096;19;130181;-39
2022/05/12 17:36:21;;;;;;;20.83;4.18;;;;;;;22.30;34.60;101686.63;16137600;19;130245;-42
2022/05/12 17:41:44;;;;;;;11.98;3.65;;;;;;;22.32;34.86;101695.59;16136804;19;131060;-42
2022/05/12 17:47:09;;;;;;;17.80;3.20;;;;;;;22.32;34.88;101701.19;16136519;19;129818;-43
2022/05/12 17:52:31;;;;;;;;;;;;;;;22.28;34.41;101702.78;16135111;19;130647;-42
2022/05/12 17:57:52;;;;;;;134.52;63.08;;;;;;;22.31;35.90;101702.28;16133576;19;130992;-40
2022/05/12 18:03:15;;;;;;;154.68;74.05;;;;;;;22.37;36.87;101698.50;16129983;19;129563;-40
2022/05/12 18:08:37;;;;;;;112.90;55.58;;;;;;;22.40;37.53;101708.28;16134337;19;129819;-41
2022/05/12 18:13:59;;;;;;;92.93;42.10;;;;;;;22.43;37.47;101707.78;16136120;19;129769;-44
2022/05/12 18:19:22;;;;;;;95.38;41.00;;;;;;;22.43;38.25;101708.59;16130303;19;132229;-44
2022/05/12 18:24:46;;;;;;;80.45;33.20;;;;;;;22.46;38.63;101714.78;16129870;19;130930;-44
2022/05/12 18:30:11;;;;;;;84.95;34.65;;;;;;;22.47;39.08;101714.53;16130932;19;129876;-47
2022/05/12 18:35:34;;;;;;;89.95;32.50;;;;;;;22.48;39.44;101715.38;16136433;19;129748;-43
2022/05/12 18:40:56;;;;;;;71.78;28.98;;;;;;;22.47;39.38;101713.69;16133400;19;131311;-41
2022/05/12 18:46:17;;;;;;;72.90;26.48;;;;;;;22.46;40.15;101718.44;16134418;19;129078;-42
2022/05/12 18:51:39;;;;;;;67.57;22.10;;;;;;;22.44;39.99;101732.59;16133935;19;129580;-42
2022/05/12 18:57:01;;;;;;;59.03;20.30;;;;;;;22.43;40.19;101730.09;16133005;19;129576;-41
2022/05/12 19:02:23;;;;;;;58.08;16.85;;;;;;;22.41;40.36;101741.47;16130266;19;129913;-44
2022/05/12 19:07:45;;;;;;;45.20;14.93;;;;;;;22.41;39.83;101755.41;16130834;19;129440;-42
2022/05/12 19:13:07;;;;;;;48.83;15.18;;;;;;;22.39;40.14;101754.84;16131831;19;128983;-41
2022/05/12 19:18:29;;;;;;;41.97;12.50;;;;;;;22.38;40.27;101764.31;16128994;19;128937;-41
2022/05/12 19:23:50;;;;;;;43.85;12.10;;;;;;;22.38;39.76;101769.88;16144939;19;129439;-42
2022/05/12 19:29:12;;;;;;;36.33;11.68;;;;;;;22.36;40.51;101774.00;16146700;19;130067;-43
2022/05/12 19:34:34;;;;;;;29.50;10.20;;;;;;;22.35;40.42;101780.66;16147842;19;129154;-41
2022/05/12 19:39:58;;;;;;;38.90;11.48;;;;;;;22.35;40.76;101789.88;16147630;19;131246;-40
2022/05/12 19:45:21;;;;;;;44.03;10.53;;;;;;;22.35;40.39;101801.03;16143283;19;129251;-41
2022/05/12 19:50:44;;;;;;;32.13;9.02;;;;;;;22.34;40.24;101799.34;16146354;19;129486;-42
2022/05/12 19:56:06;;;;;;;37.22;8.55;;;;;;;22.34;40.33;101792.94;16144320;19;130131;-42
2022/05/12 20:01:27;;;;;;;25.10;6.57;;;;;;;22.33;39.97;101807.97;16144971;19;129790;-41
2022/05/12 20:06:49;;;;;;;19.67;5.82;;;;;;;22.31;40.12;101805.41;16144317;19;131384;-40
2022/05/12 20:12:11;;;;;;;21.40;5.47;;;;;;;22.31;39.99;101810.97;16145517;19;129732;-42
2022/05/12 20:17:37;;;;;;;22.70;5.40;;;;;;;22.29;39.94;101807.59;16140724;19;129729;-40
2022/05/12 20:22:59;;;;;;;42.75;5.65;;;;;;;22.25;39.73;101814.78;16131742;19;129793;-40
2022/05/12 20:28:22;;;;;;;27.27;4.85;;;;;;;22.27;40.19;101829.31;16136816;19;129010;-40
2022/05/12 20:33:45;;;;;;;22.77;5.22;;;;;;;22.25;39.81;101815.63;16143016;19;130192;-40
2022/05/12 20:39:09;;;;;;;24.38;4.40;;;;;;;22.25;39.72;101829.56;16143106;19;130502;-39
2022/05/12 20:44:31;;;;;;;19.30;4.47;;;;;;;22.22;40.04;101830.03;16137890;19;129758;-40
2022/05/12 20:49:53;;;;;;;18.00;3.95;;;;;;;22.22;39.43;101829.22;16132058;19;129819;-43
2022/05/12 20:55:15;;;;;;;13.55;3.33;;;;;;;22.20;39.56;101835.03;16126331;19;129409;-40
2022/05/12 21:00:38;;;;;;;10.65;3.55;;;;;;;22.18;39.58;101831.63;16125865;19;129580;-41
2022/05/12 21:06:01;;;;;;;10.88;2.72;;;;;;;22.18;39.54;101844.69;16129673;19;129367;-41
2022/05/12 21:11:22;;;;;;;11.63;2.50;;;;;;;22.14;39.43;101844.34;16134986;19;130313;-40
2022/05/12 21:16:44;;;;;;;13.07;2.45;;;;;;;22.14;39.54;101855.50;16127206;19;130008;-42
2022/05/12 21:22:08;;;;;;;21.40;3.55;;;;;;;22.11;39.46;101865.22;16127476;19;129544;-43
2022/05/12 21:27:34;;;;;;;19.65;2.70;;;;;;;22.08;39.40;101874.06;16114766;19;130422;-45
2022/05/12 21:32:56;;;;;;;17.48;2.80;;;;;;;22.04;39.73;101870.06;16131418;19;130380;-41
2022/05/12 21:38:18;;;;;;;11.70;2.40;;;;;;;22.01;39.55;101876.16;16127626;19;130459;-39
2022/05/12 21:43:41;;;;;;;10.00;2.33;;;;;;;21.98;39.41;101876.63;16128384;19;129673;-40
2022/05/12 21:49:03;;;;;;;8.52;2.50;;;;;;;21.95;39.35;101863.19;16134077;19;130323;-38
2022/05/12 21:54:25;;;;;;;9.30;1.90;;;;;;;21.92;39.25;101858.09;16134627;19;129771;-41
2022/05/12 22:05:27;;;;;;;5.70;1.45;;;;;;;21.87;39.27;101858.84;16131643;19;130232;-40
2022/05/12 22:10:49;;;;;;;5.13;1.48;;;;;;;21.85;39.46;101857.41;16131048;19;130141;-40
2022/05/12 22:16:10;;;;;;;6.55;1.70;;;;;;;21.82;39.13;101854.03;16128774;19;130171;-40
2022/05/12 22:21:32;;;;;;;6.53;1.90;;;;;;;21.81;39.43;101857.06;16130959;19;129456;-40
2022/05/12 22:26:54;;;;;;;6.45;1.60;;;;;;;21.79;39.07;101857.28;16125735;19;129401;-43
2022/05/12 22:32:17;;;;;;;4.47;1.38;;;;;;;21.79;39.07;101851.72;16129895;19;130201;-45
2022/05/12 22:37:44;;;;;;;3.65;1.50;;;;;;;21.76;39.02;101838.31;16129801;19;130102;-41
2022/05/12 22:43:06;;;;;;;5.32;1.48;;;;;;;21.73;38.98;101829.56;16130253;19;129478;-44
2022/05/12 22:48:28;;;;;;;4.15;1.00;;;;;;;21.72;38.73;101831.53;16129439;19;130011;-40
2022/05/12 22:53:50;;;;;;;5.07;1.15;;;;;;;21.71;38.91;101835.41;16134282;19;129360;-45
2022/05/12 22:59:12;;;;;;;2.55;1.00;;;;;;;21.69;38.97;101826.44;16146129;19;129968;-44
2022/05/12 23:04:34;;;;;;;4.00;1.00;;;;;;;21.68;38.92;101813.59;16141738;19;130380;-41
2022/05/12 23:09:56;;;;;;;2.75;0.93;;;;;;;21.65;39.10;101814.94;16144992;19;129341;-46
2022/05/12 23:15:18;;;;;;;3.97;1.00;;;;;;;21.65;39.02;101823.31;16143877;19;130146;-44
2022/05/12 23:26:20;;;;;;;2.63;0.80;;;;;;;21.60;38.75;101827.91;16134979;19;129947;-41
2022/05/12 23:31:42;;;;;;;3.25;1.00;;;;;;;21.60;38.93;101822.34;16137358;19;130599;-42
2022/05/12 23:37:04;;;;;;;2.22;0.75;;;;;;;21.58;38.59;101830.97;16141836;19;130601;-44
2022/05/12 23:42:26;;;;;;;3.95;0.77;;;;;;;21.56;38.79;101826.69;16140064;19;129962;-40
2022/05/12 23:47:49;;;;;;;2.15;0.70;;;;;;;21.54;38.55;101828.91;16141009;19;129847;-43
2022/05/12 23:53:11;;;;;;;1.77;0.60;;;;;;;21.51;38.57;101825.53;16140886;19;130571;-41
2022/05/12 23:58:34;;;;;;;3.03;0.70;;;;;;;21.52;38.40;101829.13;16140883;19;130399;-47
